KMEV/MEV METAR and TAF weather

Enter ICAO airport designator
Station Type Date Time Source
KMEV METAR 2020/11/27 14:55 UTC NOAA

KMEV 271455Z AUTO 14004KT 10SM CLR M12/M14 A3041 RMK AO2


Station Type Date Time Source
KMEV Decoded METAR 2020/11/27 14:55 UTC NOAA

Station name not available
Nov 27, 2020 - 09:55 AM EST / 2020.11.27 1455 UTC
Wind: from the SE (140 degrees) at 5 MPH (4 KT):0
Visibility: 10 mile(s):0
Sky conditions: clear
Temperature: 10 F (-12 C)
Windchill: 1 F (-17 C):1
Dew Point: 6 F (-14 C)
Relative Humidity: 85%
Pressure (altimeter): 30.41 in. Hg (1029 hPa)
ob: KMEV 271455Z AUTO 14004KT 10SM CLR M12/M14 A3041 RMK AO2
cycle: 15

Station Type Date Time Source
KMEV TAF 2020/11/27 12:21 UTC NOAA

TAF KMEV 271120Z 2712/2812 VRB03KT P6SM SKC
FM272100 09007KT P6SM SKC
FM280200 VRB05KT P6SM SKC

Example: see airport list